Time;durP1;ratioP1;P1;durP2;ratioP2;P2;SDS_P1;SDS_P2;PMS_P1;PMS_P2;Temp;Humidity;BMP_temperature;BMP_pressure;BME280_temperature;BME280_humidity;BME280_pressure;Samples;Min_cycle;Max_cycle;Signal;HPM_P1;HPM_P2
2021/12/30 00:00:28;;;;;;;0.55;0.30;;;;;;;;;;5089279;28;20380;-56
2021/12/30 00:02:54;;;;;;;1.60;0.60;;;;;;;;;;5070689;28;20458;-56
2021/12/30 00:05:20;;;;;;;2.50;1.50;;;;;;;;;;5087961;28;20157;-56
2021/12/30 00:07:46;;;;;;;1.85;0.60;;;;;;;;;;5089058;28;20032;-56
2021/12/30 00:10:12;;;;;;;0.38;0.30;;;;;;;;;;5087363;28;20028;-56
2021/12/30 00:12:38;;;;;;;1.20;0.30;;;;;;;;;;5087903;28;20491;-56
2021/12/30 00:15:07;;;;;;;0.38;0.38;;;;;;;;;;5087861;28;20054;-56
2021/12/30 00:17:33;;;;;;;0.95;0.82;;;;;;;;;;5088685;28;20112;-56
2021/12/30 00:20:00;;;;;;;0.75;0.50;;;;;;;;;;5088055;28;20063;-52
2021/12/30 00:22:27;;;;;;;1.17;0.43;;;;;;;;;;5088663;28;20458;-56
2021/12/30 00:24:53;;;;;;;0.98;0.45;;;;;;;;;;5088563;28;20082;-55
2021/12/30 00:27:20;;;;;;;0.63;0.50;;;;;;;;;;5087820;28;20698;-56
2021/12/30 00:29:46;;;;;;;0.50;0.40;;;;;;;;;;5088886;28;20030;-56
2021/12/30 00:32:12;;;;;;;1.48;0.40;;;;;;;;;;5087733;28;20020;-56
2021/12/30 00:34:38;;;;;;;1.45;0.50;;;;;;;;;;5088171;28;20411;-56
2021/12/30 00:37:04;;;;;;;2.55;0.70;;;;;;;;;;5078169;28;20057;-56
2021/12/30 00:39:30;;;;;;;0.80;0.38;;;;;;;;;;5067820;28;20468;-56
2021/12/30 00:41:56;;;;;;;1.95;0.30;;;;;;;;;;5068095;28;20025;-56
2021/12/30 00:44:22;;;;;;;1.20;0.40;;;;;;;;;;5067398;28;20515;-56
2021/12/30 00:46:48;;;;;;;0.47;0.30;;;;;;;;;;5067806;28;20029;-56
2021/12/30 00:49:14;;;;;;;0.77;0.47;;;;;;;;;;5056850;28;20079;-56
2021/12/30 00:51:41;;;;;;;0.57;0.40;;;;;;;;;;5054562;28;20555;-55
2021/12/30 00:54:07;;;;;;;0.82;0.45;;;;;;;;;;5053838;28;20025;-55
2021/12/30 00:56:33;;;;;;;0.82;0.50;;;;;;;;;;5054487;28;20041;-56
2021/12/30 00:58:59;;;;;;;0.80;0.30;;;;;;;;;;5054443;28;20098;-51
2021/12/30 01:01:25;;;;;;;0.50;0.38;;;;;;;;;;5055251;28;20025;-56
2021/12/30 01:03:52;;;;;;;1.75;0.50;;;;;;;;;;5054633;28;20021;-56
2021/12/30 01:06:18;;;;;;;1.27;0.60;;;;;;;;;;5053611;28;20029;-56
2021/12/30 01:08:44;;;;;;;1.15;0.45;;;;;;;;;;5054455;28;20463;-56
2021/12/30 01:11:11;;;;;;;1.02;0.47;;;;;;;;;;5053274;28;20480;-56
2021/12/30 01:13:40;;;;;;;1.17;0.30;;;;;;;;;;5054437;28;20037;-56
2021/12/30 01:16:16;;;;;;;0.28;0.22;;;;;;;;;;5053362;28;20025;-56
2021/12/30 01:21:09;;;;;;;0.75;0.40;;;;;;;;;;5053104;28;20037;-56
2021/12/30 01:23:36;;;;;;;1.02;0.50;;;;;;;;;;5062030;28;20108;-56
2021/12/30 01:26:02;;;;;;;1.20;0.47;;;;;;;;;;5073628;28;20028;-52
2021/12/30 01:28:28;;;;;;;3.45;1.20;;;;;;;;;;5073717;28;20024;-56
2021/12/30 01:30:55;;;;;;;0.60;0.40;;;;;;;;;;5074121;28;20357;-56
2021/12/30 01:33:21;;;;;;;0.38;0.28;;;;;;;;;;5073042;28;20263;-56
2021/12/30 01:35:47;;;;;;;0.98;0.38;;;;;;;;;;5073529;28;20021;-56
2021/12/30 01:38:16;;;;;;;1.55;0.40;;;;;;;;;;5072898;28;20430;-56
2021/12/30 01:40:43;;;;;;;0.38;0.30;;;;;;;;;;5073901;28;20123;-56
2021/12/30 01:43:11;;;;;;;1.23;0.30;;;;;;;;;;5072793;28;20053;-56
2021/12/30 01:45:37;;;;;;;0.47;0.22;;;;;;;;;;5073697;28;20021;-56
2021/12/30 01:48:03;;;;;;;0.73;0.52;;;;;;;;;;5073012;28;20032;-51
2021/12/30 01:50:29;;;;;;;3.60;0.47;;;;;;;;;;5073302;28;20042;-56
2021/12/30 01:52:55;;;;;;;1.08;0.68;;;;;;;;;;5073472;28;20028;-56
2021/12/30 01:55:22;;;;;;;2.42;0.90;;;;;;;;;;5072723;28;20081;-56
2021/12/30 01:57:49;;;;;;;1.75;0.40;;;;;;;;;;5072959;28;20032;-56
2021/12/30 02:00:16;;;;;;;0.57;0.43;;;;;;;;;;5071563;28;20115;-56
2021/12/30 02:02:42;;;;;;;0.40;0.30;;;;;;;;;;5073325;28;20033;-55
2021/12/30 02:05:09;;;;;;;0.75;0.35;;;;;;;;;;5072456;28;20025;-56
2021/12/30 02:07:35;;;;;;;0.55;0.43;;;;;;;;;;5073131;28;20025;-56
2021/12/30 02:10:02;;;;;;;0.85;0.38;;;;;;;;;;5072878;28;20024;-52
2021/12/30 02:12:30;;;;;;;1.55;0.40;;;;;;;;;;5072862;28;20028;-56
2021/12/30 02:14:56;;;;;;;0.30;0.22;;;;;;;;;;5072561;28;20380;-56
2021/12/30 02:17:22;;;;;;;2.20;0.40;;;;;;;;;;5071415;28;20583;-56
2021/12/30 02:19:49;;;;;;;1.25;0.40;;;;;;;;;;5072964;28;20056;-56
2021/12/30 02:22:15;;;;;;;1.60;0.30;;;;;;;;;;5071780;28;20481;-56
2021/12/30 02:24:47;;;;;;;2.72;0.38;;;;;;;;;;5055766;28;20031;-56
2021/12/30 02:27:13;;;;;;;0.80;0.43;;;;;;;;;;5051943;28;20039;-56
2021/12/30 02:29:39;;;;;;;0.73;0.45;;;;;;;;;;5052550;28;20025;-56
2021/12/30 02:32:06;;;;;;;0.50;0.40;;;;;;;;;;5051704;28;20419;-54
2021/12/30 02:34:32;;;;;;;0.75;0.40;;;;;;;;;;5052739;28;20036;-56
2021/12/30 02:36:58;;;;;;;1.20;0.30;;;;;;;;;;5052046;28;20068;-56
2021/12/30 02:39:24;;;;;;;0.55;0.30;;;;;;;;;;5051679;28;20044;-56
2021/12/30 02:41:51;;;;;;;0.38;0.20;;;;;;;;;;5052594;28;20036;-56
2021/12/30 02:44:17;;;;;;;0.40;0.40;;;;;;;;;;5051767;28;20021;-56
2021/12/30 02:46:43;;;;;;;1.17;0.28;;;;;;;;;;5052608;28;20025;-56
2021/12/30 02:49:09;;;;;;;0.65;0.30;;;;;;;;;;5051907;28;20021;-56
2021/12/30 02:51:36;;;;;;;0.63;0.30;;;;;;;;;;5052384;28;20025;-56
2021/12/30 02:54:03;;;;;;;1.50;0.30;;;;;;;;;;5051974;28;20056;-54
2021/12/30 02:56:30;;;;;;;1.30;1.02;;;;;;;;;;5052043;28;20029;-56
2021/12/30 02:58:56;;;;;;;0.50;0.30;;;;;;;;;;5052272;28;20419;-56
2021/12/30 03:01:29;;;;;;;1.10;0.40;;;;;;;;;;5051157;28;20017;-56
2021/12/30 03:03:56;;;;;;;0.68;0.40;;;;;;;;;;5052018;28;20366;-56
2021/12/30 03:06:22;;;;;;;1.63;0.70;;;;;;;;;;5051163;28;20114;-56
2021/12/30 03:08:49;;;;;;;0.68;0.30;;;;;;;;;;5052130;28;20055;-56
2021/12/30 03:11:16;;;;;;;1.08;0.35;;;;;;;;;;5051028;28;20036;-56
2021/12/30 03:13:44;;;;;;;0.93;0.50;;;;;;;;;;5052276;28;20164;-56
2021/12/30 03:16:12;;;;;;;0.45;0.32;;;;;;;;;;5051190;28;20021;-56
2021/12/30 03:18:38;;;;;;;0.80;0.30;;;;;;;;;;5052095;28;20083;-56
2021/12/30 03:21:05;;;;;;;1.38;0.40;;;;;;;;;;5051740;28;20480;-52
2021/12/30 03:23:32;;;;;;;0.75;0.68;;;;;;;;;;5059244;28;20029;-56
2021/12/30 03:25:57;;;;;;;1.50;0.57;;;;;;;;;;5071588;28;20052;-56
2021/12/30 03:28:23;;;;;;;0.85;0.45;;;;;;;;;;5071176;28;20047;-56
2021/12/30 03:30:51;;;;;;;1.17;0.75;;;;;;;;;;5071642;28;20416;-56
2021/12/30 03:33:17;;;;;;;1.92;0.98;;;;;;;;;;5071071;28;20032;-56
2021/12/30 03:35:43;;;;;;;1.38;0.40;;;;;;;;;;5071804;28;20107;-56
2021/12/30 03:38:09;;;;;;;1.17;0.40;;;;;;;;;;5070441;28;20155;-56
2021/12/30 03:40:35;;;;;;;1.90;0.70;;;;;;;;;;5071826;28;20070;-56
2021/12/30 03:43:01;;;;;;;0.88;0.50;;;;;;;;;;5071857;28;20100;-57
2021/12/30 03:45:27;;;;;;;1.58;0.60;;;;;;;;;;5070871;28;20024;-56
2021/12/30 03:47:53;;;;;;;1.15;0.50;;;;;;;;;;5071806;28;20033;-56
2021/12/30 03:50:22;;;;;;;2.35;0.50;;;;;;;;;;5070972;28;20527;-60
2021/12/30 03:52:49;;;;;;;0.88;0.52;;;;;;;;;;5071471;28;20036;-54
2021/12/30 03:55:16;;;;;;;0.50;0.40;;;;;;;;;;5070798;28;20028;-56
2021/12/30 03:57:42;;;;;;;1.17;0.57;;;;;;;;;;5071569;28;20366;-57
2021/12/30 04:00:08;;;;;;;2.72;1.13;;;;;;;;;;5070617;28;20020;-54
2021/12/30 04:02:34;;;;;;;0.68;0.50;;;;;;;;;;5071666;28;20029;-50
2021/12/30 04:05:00;;;;;;;1.08;0.50;;;;;;;;;;5071387;28;20017;-49
2021/12/30 04:07:26;;;;;;;2.80;1.10;;;;;;;;;;5070859;28;20059;-57
2021/12/30 04:09:52;;;;;;;0.90;0.43;;;;;;;;;;5071308;28;20023;-56
2021/12/30 04:12:19;;;;;;;1.42;0.45;;;;;;;;;;5070803;28;20411;-55
2021/12/30 04:14:45;;;;;;;0.93;0.47;;;;;;;;;;5071497;28;20361;-49
2021/12/30 04:17:11;;;;;;;0.32;0.22;;;;;;;;;;5070700;28;20035;-53
2021/12/30 04:19:37;;;;;;;1.85;0.50;;;;;;;;;;5071514;28;20029;-54
2021/12/30 04:22:03;;;;;;;0.90;0.60;;;;;;;;;;5071041;28;20021;-47
2021/12/30 04:24:29;;;;;;;0.88;0.43;;;;;;;;;;5057542;28;20036;-59
2021/12/30 04:26:55;;;;;;;0.50;0.40;;;;;;;;;;5055162;28;20029;-58
2021/12/30 04:29:21;;;;;;;0.95;0.40;;;;;;;;;;5054312;28;20408;-59
2021/12/30 04:31:48;;;;;;;1.25;0.38;;;;;;;;;;5054792;28;20033;-51
2021/12/30 04:34:15;;;;;;;2.95;0.80;;;;;;;;;;5054036;28;20381;-56
2021/12/30 04:36:41;;;;;;;0.80;0.52;;;;;;;;;;5054704;28;20480;-66
2021/12/30 04:39:07;;;;;;;0.38;0.22;;;;;;;;;;5054561;28;20108;-62
2021/12/30 04:41:34;;;;;;;0.50;0.43;;;;;;;;;;5054600;28;20025;-69
2021/12/30 04:44:00;;;;;;;0.75;0.30;;;;;;;;;;5054990;28;20021;-56
2021/12/30 04:46:26;;;;;;;0.60;0.30;;;;;;;;;;5053814;28;20053;-49
2021/12/30 04:48:52;;;;;;;3.13;0.60;;;;;;;;;;5054851;28;20029;-47
2021/12/30 04:51:18;;;;;;;0.40;0.30;;;;;;;;;;5053932;28;20099;-48
2021/12/30 04:53:44;;;;;;;1.52;0.55;;;;;;;;;;5054552;28;20025;-49
2021/12/30 04:56:11;;;;;;;3.40;0.63;;;;;;;;;;5053693;28;20049;-56
2021/12/30 04:58:37;;;;;;;0.75;0.50;;;;;;;;;;5054610;28;20028;-56
2021/12/30 05:01:03;;;;;;;0.60;0.45;;;;;;;;;;5054462;28;20036;-57
2021/12/30 05:03:29;;;;;;;1.50;0.50;;;;;;;;;;5053457;28;20098;-56
2021/12/30 05:05:56;;;;;;;1.50;0.40;;;;;;;;;;5054249;28;20028;-55
2021/12/30 05:08:23;;;;;;;0.73;0.30;;;;;;;;;;5035796;28;20025;-54
2021/12/30 05:10:50;;;;;;;1.73;0.45;;;;;;;;;;5054144;28;20032;-54
2021/12/30 05:13:16;;;;;;;1.48;0.45;;;;;;;;;;5053528;28;20028;-54
2021/12/30 05:15:42;;;;;;;0.75;0.40;;;;;;;;;;5054177;28;20029;-55
2021/12/30 05:18:09;;;;;;;0.40;0.30;;;;;;;;;;5053533;28;20466;-51
2021/12/30 05:20:36;;;;;;;1.25;0.60;;;;;;;;;;5053808;28;20017;-55
2021/12/30 05:23:03;;;;;;;0.60;0.50;;;;;;;;;;5057387;28;20095;-55
2021/12/30 05:25:29;;;;;;;0.38;0.22;;;;;;;;;;5073387;28;20020;-56
2021/12/30 05:27:55;;;;;;;0.20;0.20;;;;;;;;;;5073945;28;20039;-55
2021/12/30 05:30:22;;;;;;;0.90;0.40;;;;;;;;;;5073002;28;20082;-54
2021/12/30 05:32:49;;;;;;;0.90;0.50;;;;;;;;;;5073692;28;20031;-55
2021/12/30 05:35:15;;;;;;;0.82;0.60;;;;;;;;;;5073044;28;20107;-55
2021/12/30 05:37:42;;;;;;;0.47;0.30;;;;;;;;;;5073459;28;20092;-54
2021/12/30 05:40:09;;;;;;;3.20;0.32;;;;;;;;;;5073478;28;20115;-50
2021/12/30 05:42:35;;;;;;;0.95;0.30;;;;;;;;;;5073209;28;20071;-56
2021/12/30 05:45:01;;;;;;;0.20;0.20;;;;;;;;;;5073759;28;20401;-57
2021/12/30 05:47:28;;;;;;;0.20;0.20;;;;;;;;;;5072797;28;20036;-54
2021/12/30 05:49:54;;;;;;;2.53;0.50;;;;;;;;;;5073672;28;20504;-54
2021/12/30 05:52:20;;;;;;;1.48;0.40;;;;;;;;;;5072836;28;20027;-51
2021/12/30 05:54:46;;;;;;;0.50;0.30;;;;;;;;;;5073922;28;20025;-56
2021/12/30 05:57:12;;;;;;;0.98;0.40;;;;;;;;;;5072226;28;20036;-52
2021/12/30 05:59:38;;;;;;;0.85;0.75;;;;;;;;;;5073484;28;20059;-56
2021/12/30 06:02:04;;;;;;;0.77;0.50;;;;;;;;;;5069593;28;20377;-56
2021/12/30 06:04:30;;;;;;;1.10;0.30;;;;;;;;;;5062042;28;20086;-55
2021/12/30 06:06:56;;;;;;;1.98;0.30;;;;;;;;;;5062305;28;20469;-56
2021/12/30 06:09:25;;;;;;;0.55;0.40;;;;;;;;;;5060337;28;20044;-56
2021/12/30 06:11:51;;;;;;;0.30;0.20;;;;;;;;;;5062210;28;20026;-55
2021/12/30 06:14:17;;;;;;;0.30;0.30;;;;;;;;;;5061938;28;20039;-56
2021/12/30 06:16:43;;;;;;;0.68;0.20;;;;;;;;;;5060643;28;20033;-56
2021/12/30 06:19:09;;;;;;;0.85;0.40;;;;;;;;;;5062441;28;20020;-53
2021/12/30 06:21:35;;;;;;;1.20;0.82;;;;;;;;;;5061439;28;20053;-55
2021/12/30 06:24:01;;;;;;;1.10;0.40;;;;;;;;;;5061151;28;20017;-56
2021/12/30 06:26:27;;;;;;;0.68;0.30;;;;;;;;;;5044770;28;20575;-56
2021/12/30 06:28:53;;;;;;;0.50;0.20;;;;;;;;;;5061559;28;20047;-56
2021/12/30 06:31:19;;;;;;;0.20;0.20;;;;;;;;;;5061296;28;20032;-56
2021/12/30 06:33:45;;;;;;;0.68;0.30;;;;;;;;;;5060320;28;20013;-56
2021/12/30 06:36:12;;;;;;;0.77;0.30;;;;;;;;;;5060849;28;20038;-56
2021/12/30 06:38:38;;;;;;;0.68;0.47;;;;;;;;;;5062021;28;20033;-57
2021/12/30 06:41:05;;;;;;;0.95;0.45;;;;;;;;;;5059785;28;20378;-56
2021/12/30 06:43:31;;;;;;;0.20;0.20;;;;;;;;;;5061012;28;20021;-56
2021/12/30 06:45:57;;;;;;;1.17;0.30;;;;;;;;;;5060919;28;20064;-56
2021/12/30 06:48:23;;;;;;;1.00;0.30;;;;;;;;;;5058933;28;20370;-56
2021/12/30 06:50:52;;;;;;;0.85;0.40;;;;;;;;;;5062025;28;20487;-56
2021/12/30 06:53:20;;;;;;;0.30;0.20;;;;;;;;;;5060867;28;20021;-56
2021/12/30 06:55:46;;;;;;;0.55;0.28;;;;;;;;;;5059745;28;20107;-55
2021/12/30 06:58:12;;;;;;;1.20;0.30;;;;;;;;;;5060565;28;20075;-56
2021/12/30 07:00:38;;;;;;;1.20;0.70;;;;;;;;;;5061831;28;20040;-51
2021/12/30 07:03:05;;;;;;;0.20;0.20;;;;;;;;;;5059977;28;20373;-58
2021/12/30 07:05:31;;;;;;;0.73;0.50;;;;;;;;;;5058452;28;20021;-60
2021/12/30 07:07:57;;;;;;;0.52;0.30;;;;;;;;;;5057946;28;20382;-59
2021/12/30 07:10:23;;;;;;;1.38;0.40;;;;;;;;;;5056422;28;20025;-59
2021/12/30 07:12:49;;;;;;;0.30;0.30;;;;;;;;;;5062136;28;20472;-56
2021/12/30 07:15:15;;;;;;;1.52;0.40;;;;;;;;;;5058564;28;20052;-56
2021/12/30 07:17:42;;;;;;;0.35;0.35;;;;;;;;;;5060236;28;20035;-56
2021/12/30 07:20:08;;;;;;;1.08;0.30;;;;;;;;;;5062672;28;20491;-57
2021/12/30 07:22:35;;;;;;;0.60;0.30;;;;;;;;;;5061888;28;20095;-56
2021/12/30 07:25:01;;;;;;;1.83;0.75;;;;;;;;;;5060242;28;20114;-56
2021/12/30 07:27:27;;;;;;;0.63;0.30;;;;;;;;;;5069712;28;20033;-56
2021/12/30 07:29:53;;;;;;;2.05;0.38;;;;;;;;;;5062302;28;20036;-55
2021/12/30 07:32:19;;;;;;;0.80;0.68;;;;;;;;;;5080886;28;20017;-56
2021/12/30 07:34:45;;;;;;;0.75;0.30;;;;;;;;;;5091606;28;20016;-56
2021/12/30 07:37:14;;;;;;;2.08;0.50;;;;;;;;;;5091484;28;20055;-55
2021/12/30 07:39:41;;;;;;;3.85;0.50;;;;;;;;;;5092110;28;20030;-57
2021/12/30 07:42:07;;;;;;;0.47;0.30;;;;;;;;;;5091054;28;20027;-55
2021/12/30 07:44:33;;;;;;;0.32;0.15;;;;;;;;;;5060728;28;20024;-55
2021/12/30 07:46:59;;;;;;;1.45;0.50;;;;;;;;;;5060889;28;20029;-53
2021/12/30 07:49:25;;;;;;;2.60;0.50;;;;;;;;;;5059159;28;20029;-55
2021/12/30 07:51:51;;;;;;;0.68;0.35;;;;;;;;;;5061949;28;20013;-55
2021/12/30 07:54:17;;;;;;;4.28;0.45;;;;;;;;;;5063627;28;20105;-54
2021/12/30 07:56:43;;;;;;;1.52;0.50;;;;;;;;;;5059971;28;20496;-54
2021/12/30 07:59:10;;;;;;;0.55;0.30;;;;;;;;;;5063113;28;20013;-49
2021/12/30 08:01:36;;;;;;;0.55;0.28;;;;;;;;;;5044782;28;20427;-55
2021/12/30 08:04:02;;;;;;;2.33;0.50;;;;;;;;;;5065000;28;20025;-55
2021/12/30 08:06:28;;;;;;;0.40;0.30;;;;;;;;;;5062209;28;20037;-56
2021/12/30 08:08:55;;;;;;;0.70;0.52;;;;;;;;;;5064140;28;20374;-55
2021/12/30 08:11:21;;;;;;;0.88;0.40;;;;;;;;;;5063568;28;20028;-52
2021/12/30 08:13:47;;;;;;;1.30;0.43;;;;;;;;;;5065292;28;20380;-55
2021/12/30 08:16:13;;;;;;;0.85;0.30;;;;;;;;;;5063037;28;20047;-54
2021/12/30 08:18:40;;;;;;;0.70;0.35;;;;;;;;;;5063888;28;20038;-55
2021/12/30 08:21:06;;;;;;;0.55;0.20;;;;;;;;;;5065325;28;20355;-55
2021/12/30 08:23:32;;;;;;;0.73;0.30;;;;;;;;;;5063030;28;20031;-56
2021/12/30 08:25:58;;;;;;;0.75;0.43;;;;;;;;;;5064594;28;20075;-54
2021/12/30 08:28:25;;;;;;;0.38;0.30;;;;;;;;;;5062398;28;20035;-55
2021/12/30 08:30:51;;;;;;;0.40;0.20;;;;;;;;;;5061978;28;20070;-55
2021/12/30 08:33:18;;;;;;;0.55;0.40;;;;;;;;;;5063577;28;20112;-55
2021/12/30 08:35:44;;;;;;;0.55;0.25;;;;;;;;;;5063200;28;20065;-54
2021/12/30 08:38:12;;;;;;;0.32;0.32;;;;;;;;;;5060612;28;20056;-47
2021/12/30 08:40:38;;;;;;;0.20;0.20;;;;;;;;;;5064018;28;20020;-53
2021/12/30 08:43:06;;;;;;;0.35;0.35;;;;;;;;;;5064654;28;20112;-55
2021/12/30 08:45:32;;;;;;;0.65;0.28;;;;;;;;;;5062446;28;20025;-55
2021/12/30 08:47:58;;;;;;;0.63;0.47;;;;;;;;;;5064063;28;20025;-56
2021/12/30 08:50:24;;;;;;;0.50;0.30;;;;;;;;;;5063038;28;20024;-56
2021/12/30 08:52:50;;;;;;;0.50;0.30;;;;;;;;;;5066388;28;20025;-56
2021/12/30 08:55:17;;;;;;;0.80;0.50;;;;;;;;;;5044501;28;20028;-55
2021/12/30 08:57:44;;;;;;;0.40;0.28;;;;;;;;;;5064259;28;20032;-56
2021/12/30 09:00:20;;;;;;;0.50;0.30;;;;;;;;;;5061659;28;20021;-57
2021/12/30 09:02:46;;;;;;;0.63;0.30;;;;;;;;;;5062676;28;20425;-55
2021/12/30 09:05:13;;;;;;;0.93;0.40;;;;;;;;;;5062348;28;20021;-50
2021/12/30 09:07:39;;;;;;;0.45;0.40;;;;;;;;;;5064335;28;20036;-57
2021/12/30 09:10:08;;;;;;;0.65;0.30;;;;;;;;;;5060896;28;20393;-57
2021/12/30 09:12:34;;;;;;;0.20;0.20;;;;;;;;;;5063783;28;20032;-55
2021/12/30 09:15:00;;;;;;;0.50;0.22;;;;;;;;;;5062752;28;20047;-57
2021/12/30 09:17:26;;;;;;;0.35;0.30;;;;;;;;;;5063252;28;20421;-59
2021/12/30 09:19:52;;;;;;;0.63;0.22;;;;;;;;;;5061819;28;20024;-59
2021/12/30 09:22:18;;;;;;;0.88;0.30;;;;;;;;;;5064196;28;20012;-58
2021/12/30 09:24:44;;;;;;;1.65;0.73;;;;;;;;;;5061954;28;20520;-57
2021/12/30 09:27:10;;;;;;;1.02;0.40;;;;;;;;;;5064096;28;20116;-57
2021/12/30 09:29:36;;;;;;;2.53;0.40;;;;;;;;;;5058924;28;20030;-57
2021/12/30 09:32:03;;;;;;;0.90;0.30;;;;;;;;;;5053940;28;20056;-57
2021/12/30 09:34:28;;;;;;;1.15;0.30;;;;;;;;;;5052888;28;20021;-57
2021/12/30 09:36:55;;;;;;;0.70;0.40;;;;;;;;;;5053635;28;20053;-57
2021/12/30 09:39:21;;;;;;;1.65;0.43;;;;;;;;;;5053112;28;20017;-58
2021/12/30 09:41:47;;;;;;;1.77;0.32;;;;;;;;;;5053846;28;20519;-57
2021/12/30 09:44:15;;;;;;;3.20;0.50;;;;;;;;;;5053216;28;20048;-57
2021/12/30 09:46:41;;;;;;;0.40;0.40;;;;;;;;;;5053085;28;20473;-57
2021/12/30 09:49:08;;;;;;;0.63;0.38;;;;;;;;;;5035678;28;20029;-57
2021/12/30 09:51:35;;;;;;;2.58;0.45;;;;;;;;;;5052891;28;20151;-58
2021/12/30 09:54:01;;;;;;;0.32;0.30;;;;;;;;;;5035797;28;20053;-58
2021/12/30 09:56:28;;;;;;;0.68;0.30;;;;;;;;;;5052640;28;20107;-58
2021/12/30 09:58:54;;;;;;;4.18;0.40;;;;;;;;;;5053451;28;20033;-57
2021/12/30 10:01:20;;;;;;;4.47;0.50;;;;;;;;;;5052563;28;20032;-58
2021/12/30 10:03:46;;;;;;;2.85;0.50;;;;;;;;;;5053745;28;20029;-59
2021/12/30 10:06:14;;;;;;;4.32;0.40;;;;;;;;;;5053115;28;20032;-57
2021/12/30 10:08:52;;;;;;;1.67;0.50;;;;;;;;;;5052466;28;20494;-57
2021/12/30 10:11:18;;;;;;;3.05;0.50;;;;;;;;;;5052535;28;20049;-57
2021/12/30 10:13:51;;;;;;;7.25;1.75;;;;;;;;;;5053509;28;20029;-58
2021/12/30 10:16:17;;;;;;;11.55;5.07;;;;;;;;;;5052135;28;20032;-59
2021/12/30 10:18:43;;;;;;;15.05;3.92;;;;;;;;;;5052971;28;20075;-59
2021/12/30 10:21:14;;;;;;;9.63;3.65;;;;;;;;;;5052199;28;20028;-59
2021/12/30 10:23:44;;;;;;;13.63;4.18;;;;;;;;;;5061161;28;20028;-58
2021/12/30 10:26:10;;;;;;;11.45;3.50;;;;;;;;;;5054942;28;20044;-52
2021/12/30 10:28:39;;;;;;;8.68;3.30;;;;;;;;;;5071946;28;20623;-57
2021/12/30 10:31:11;;;;;;;10.05;3.38;;;;;;;;;;5072702;28;20025;-58
2021/12/30 10:33:45;;;;;;;11.50;3.28;;;;;;;;;;5071843;28;20055;-57
2021/12/30 10:36:15;;;;;;;11.40;3.22;;;;;;;;;;5072207;28;20020;-60
2021/12/30 10:38:41;;;;;;;10.98;4.50;;;;;;;;;;5072244;28;20028;-59
2021/12/30 10:41:08;;;;;;;13.43;5.70;;;;;;;;;;5072590;28;20039;-60
2021/12/30 10:43:45;;;;;;;15.60;5.15;;;;;;;;;;5071654;28;20033;-46
2021/12/30 10:46:15;;;;;;;15.65;6.47;;;;;;;;;;5072449;28;20031;-68
2021/12/30 10:48:50;;;;;;;11.80;4.35;;;;;;;;;;5072930;28;20028;-66
2021/12/30 10:51:16;;;;;;;17.58;5.30;;;;;;;;;;5070600;28;20461;-65
2021/12/30 10:53:43;;;;;;;12.18;3.47;;;;;;;;;;5060840;28;20052;-65
2021/12/30 10:56:38;;;;;;;11.27;3.50;;;;;;;;;;5066321;28;20046;-62
2021/12/30 10:59:12;;;;;;;15.98;3.40;;;;;;;;;;5051772;28;20121;-64
2021/12/30 11:01:46;;;;;;;11.65;3.25;;;;;;;;;;5037767;28;20037;-66
2021/12/30 11:04:12;;;;;;;10.32;2.60;;;;;;;;;;5034703;28;20040;-64
2021/12/30 11:06:39;;;;;;;11.23;3.25;;;;;;;;;;5051849;28;20063;-62
2021/12/30 11:09:11;;;;;;;10.20;3.22;;;;;;;;;;5052500;28;20071;-65
2021/12/30 11:11:39;;;;;;;4.93;2.83;;;;;;;;;;5051794;28;20112;-65
2021/12/30 11:14:07;;;;;;;6.65;3.30;;;;;;;;;;5052918;28;20101;-65
2021/12/30 11:16:33;;;;;;;8.77;2.45;;;;;;;;;;5051861;28;20036;-64
2021/12/30 11:19:00;;;;;;;8.07;3.03;;;;;;;;;;5052283;28;20095;-64
2021/12/30 11:21:39;;;;;;;7.38;2.25;;;;;;;;;;5051468;28;20477;-59
2021/12/30 11:24:06;;;;;;;7.05;3.15;;;;;;;;;;5064527;28;20021;-56
2021/12/30 11:26:32;;;;;;;21.67;3.33;;;;;;;;;;5071816;28;20021;-58
2021/12/30 11:28:59;;;;;;;7.70;2.03;;;;;;;;;;5072419;28;20024;-58
2021/12/30 11:31:25;;;;;;;9.70;2.97;;;;;;;;;;5071844;28;20020;-57
2021/12/30 11:33:52;;;;;;;10.23;1.98;;;;;;;;;;5071728;28;20024;-58
2021/12/30 11:36:18;;;;;;;10.02;3.75;;;;;;;;;;5071368;28;20094;-57
2021/12/30 11:38:44;;;;;;;5.97;1.92;;;;;;;;;;5071983;28;20422;-57
2021/12/30 11:41:18;;;;;;;7.32;1.90;;;;;;;;;;5072532;28;20024;-57
2021/12/30 11:43:45;;;;;;;5.65;1.95;;;;;;;;;;5072253;28;20074;-56
2021/12/30 11:46:30;;;;;;;8.02;2.13;;;;;;;;;;5072269;28;20079;-58
2021/12/30 11:48:57;;;;;;;9.63;2.40;;;;;;;;;;5072149;28;20052;-56
2021/12/30 11:51:23;;;;;;;8.32;1.83;;;;;;;;;;5071612;28;20025;-57
2021/12/30 11:53:52;;;;;;;7.53;2.60;;;;;;;;;;5071833;28;20099;-58
2021/12/30 11:56:22;;;;;;;5.57;2.00;;;;;;;;;;5071612;28;20029;-57
2021/12/30 11:58:49;;;;;;;7.22;1.83;;;;;;;;;;5071940;28;20033;-58
2021/12/30 12:01:19;;;;;;;6.50;1.35;;;;;;;;;;5072098;28;20032;-58
2021/12/30 12:03:54;;;;;;;5.82;1.50;;;;;;;;;;5053021;28;20096;-58
2021/12/30 12:06:30;;;;;;;5.05;1.58;;;;;;;;;;5051502;28;20029;-57
2021/12/30 12:09:06;;;;;;;6.13;1.90;;;;;;;;;;5051973;28;20039;-57
2021/12/30 12:11:42;;;;;;;3.78;1.60;;;;;;;;;;5051220;28;20021;-57
2021/12/30 12:14:19;;;;;;;7.50;1.77;;;;;;;;;;5051545;28;20031;-58
2021/12/30 12:16:48;;;;;;;7.78;1.73;;;;;;;;;;5051573;28;20082;-59
2021/12/30 12:19:16;;;;;;;10.45;2.22;;;;;;;;;;5051512;28;20021;-58
2021/12/30 12:21:53;;;;;;;5.57;1.42;;;;;;;;;;5051730;28;20462;-59
2021/12/30 12:24:21;;;;;;;7.07;2.08;;;;;;;;;;5065025;28;20408;-57
2021/12/30 12:26:52;;;;;;;4.75;1.50;;;;;;;;;;5071573;28;20374;-55
2021/12/30 12:29:38;;;;;;;6.43;1.60;;;;;;;;;;5071902;28;20028;-54
2021/12/30 12:32:11;;;;;;;6.63;1.70;;;;;;;;;;5054378;28;20036;-52
2021/12/30 12:34:42;;;;;;;5.32;1.25;;;;;;;;;;5071416;28;20103;-55
2021/12/30 12:37:27;;;;;;;6.80;1.50;;;;;;;;;;5071573;28;20389;-55
2021/12/30 12:40:05;;;;;;;7.25;1.70;;;;;;;;;;5071693;28;20025;-54
2021/12/30 12:42:43;;;;;;;6.68;2.00;;;;;;;;;;5071097;28;20028;-54
2021/12/30 12:45:16;;;;;;;6.35;1.38;;;;;;;;;;5073512;28;20063;-55
2021/12/30 12:47:42;;;;;;;3.33;1.20;;;;;;;;;;5074579;28;20026;-56
2021/12/30 12:50:09;;;;;;;5.28;1.00;;;;;;;;;;5074941;28;20103;-56
2021/12/30 12:52:48;;;;;;;5.90;1.15;;;;;;;;;;5074108;28;20078;-56
2021/12/30 12:55:18;;;;;;;2.53;1.15;;;;;;;;;;5074245;28;20029;-56
2021/12/30 12:57:44;;;;;;;2.65;0.98;;;;;;;;;;5074069;28;20114;-56
2021/12/30 13:00:10;;;;;;;1.50;0.95;;;;;;;;;;5074859;28;20025;-56
2021/12/30 13:02:36;;;;;;;3.58;0.90;;;;;;;;;;5073851;28;20112;-55
2021/12/30 13:05:11;;;;;;;5.75;1.35;;;;;;;;;;5074699;28;20052;-59
2021/12/30 13:07:37;;;;;;;8.45;2.03;;;;;;;;;;5073984;28;20041;-55
2021/12/30 13:10:03;;;;;;;4.38;1.13;;;;;;;;;;5067186;28;20144;-53
2021/12/30 13:12:35;;;;;;;1.77;0.80;;;;;;;;;;5080330;28;20024;-53
2021/12/30 13:15:01;;;;;;;6.82;1.73;;;;;;;;;;5074785;28;20029;-56
2021/12/30 13:17:27;;;;;;;5.70;1.48;;;;;;;;;;5073483;28;20224;-55
2021/12/30 13:19:53;;;;;;;5.50;1.52;;;;;;;;;;5074437;28;20056;-55
2021/12/30 13:22:20;;;;;;;9.85;1.80;;;;;;;;;;5074636;28;20024;-55
2021/12/30 13:24:54;;;;;;;27.38;2.13;;;;;;;;;;5075912;28;20091;-55
2021/12/30 13:27:41;;;;;;;12.98;1.05;;;;;;;;;;5094310;28;20115;-44
2021/12/30 13:30:14;;;;;;;2.97;1.20;;;;;;;;;;5094667;28;20372;-48
2021/12/30 13:32:44;;;;;;;2.20;1.00;;;;;;;;;;5094116;28;20101;-48
2021/12/30 13:35:14;;;;;;;3.40;1.33;;;;;;;;;;5094354;28;20077;-48
2021/12/30 13:37:44;;;;;;;6.63;1.23;;;;;;;;;;5093499;28;20078;-46
2021/12/30 13:40:15;;;;;;;3.97;0.85;;;;;;;;;;5091024;28;20465;-48
2021/12/30 13:42:46;;;;;;;2.00;0.80;;;;;;;;;;5053137;28;20303;-44
2021/12/30 13:45:12;;;;;;;2.63;1.13;;;;;;;;;;5053739;28;20116;-45
2021/12/30 13:47:42;;;;;;;1.33;0.60;;;;;;;;;;5053149;28;20184;-48
2021/12/30 13:50:13;;;;;;;1.45;0.90;;;;;;;;;;5054102;28;20025;-46
2021/12/30 13:52:41;;;;;;;1.95;0.80;;;;;;;;;;5053434;28;20071;-44
2021/12/30 13:55:08;;;;;;;1.73;1.00;;;;;;;;;;5054037;28;20037;-47
2021/12/30 13:57:34;;;;;;;2.70;0.63;;;;;;;;;;5053348;28;20033;-46
2021/12/30 14:00:01;;;;;;;1.25;0.68;;;;;;;;;;5053605;28;20020;-43
2021/12/30 14:02:27;;;;;;;1.33;0.70;;;;;;;;;;5053349;28;20107;-47
2021/12/30 14:05:02;;;;;;;1.08;0.68;;;;;;;;;;5053747;28;20108;-47
2021/12/30 14:07:42;;;;;;;1.02;0.55;;;;;;;;;;5052915;28;20091;-44
2021/12/30 14:10:08;;;;;;;1.05;0.68;;;;;;;;;;5053712;28;20028;-44
2021/12/30 14:12:34;;;;;;;1.00;0.60;;;;;;;;;;5053364;28;20604;-46
2021/12/30 14:15:18;;;;;;;3.85;1.50;;;;;;;;;;5053550;28;20021;-45
2021/12/30 14:17:45;;;;;;;1.98;0.70;;;;;;;;;;5052902;28;20501;-47
2021/12/30 14:20:12;;;;;;;1.50;0.50;;;;;;;;;;5053261;28;20028;-44
2021/12/30 14:22:43;;;;;;;1.33;0.57;;;;;;;;;;5052656;28;20028;-44
2021/12/30 14:25:25;;;;;;;3.28;1.38;;;;;;;;;;5073240;28;20020;-48
2021/12/30 14:27:51;;;;;;;1.20;0.60;;;;;;;;;;5073300;28;20056;-46
2021/12/30 14:30:17;;;;;;;8.88;1.20;;;;;;;;;;5073220;28;20028;-44
2021/12/30 14:32:43;;;;;;;2.80;0.80;;;;;;;;;;5072685;28;20237;-44
2021/12/30 14:35:10;;;;;;;1.00;0.70;;;;;;;;;;5072814;28;20082;-46
2021/12/30 14:37:40;;;;;;;2.78;0.70;;;;;;;;;;5071837;28;20052;-44
2021/12/30 14:40:07;;;;;;;3.70;0.68;;;;;;;;;;5073401;28;20407;-45
2021/12/30 14:42:35;;;;;;;0.82;0.50;;;;;;;;;;5072265;28;20028;-44
2021/12/30 14:45:25;;;;;;;1.38;0.70;;;;;;;;;;5072877;28;20123;-43
2021/12/30 14:47:59;;;;;;;4.30;0.60;;;;;;;;;;5073465;28;20099;-45